Time;durP1;ratioP1;P1;durP2;ratioP2;P2;SDS_P1;SDS_P2;PMS_P1;PMS_P2;Temp;Humidity;BMP_temperature;BMP_pressure;BME280_temperature;BME280_humidity;BME280_pressure;Samples;Min_cycle;Max_cycle;Signal;HPM_P1;HPM_P2
2022/01/16 00:00:42;;;;;;;4.68;3.30;;;;;;;14.32;42.14;97411.00;5102783;28;20020;-31
2022/01/16 00:05:52;;;;;;;4.72;3.33;;;;;;;14.42;42.36;97422.88;5107579;28;20031;-31
2022/01/16 00:08:18;;;;;;;4.75;3.30;;;;;;;14.42;41.83;97450.19;5116619;28;20036;-31
2022/01/16 00:10:44;;;;;;;4.50;3.20;;;;;;;14.32;42.35;97446.47;5102976;28;20091;-32
2022/01/16 00:13:09;;;;;;;3.45;2.97;;;;;;;14.39;42.05;97445.53;5095610;28;20039;-31
2022/01/16 00:15:35;;;;;;;4.75;3.30;;;;;;;14.35;42.13;97447.56;5115579;28;20114;-32
2022/01/16 00:18:19;;;;;;;5.75;3.33;;;;;;;14.39;42.20;97451.00;5110392;28;20031;-31
2022/01/16 00:20:44;;;;;;;6.18;3.38;;;;;;;14.29;42.30;97432.91;5081747;28;20078;-31
2022/01/16 00:23:10;;;;;;;5.05;3.00;;;;;;;14.34;42.17;97435.16;5095971;28;20472;-31
2022/01/16 00:25:36;;;;;;;6.05;3.30;;;;;;;14.33;42.16;97412.53;5096984;28;20435;-31
2022/01/16 00:28:02;;;;;;;5.95;4.03;;;;;;;14.36;41.83;97413.63;5116172;28;20028;-33
2022/01/16 00:30:28;;;;;;;6.35;4.03;;;;;;;14.40;42.15;97440.88;5116048;28;20031;-31
2022/01/16 00:32:59;;;;;;;4.68;3.35;;;;;;;14.36;42.31;97479.91;5115619;28;20126;-31
2022/01/16 00:35:24;;;;;;;5.45;3.40;;;;;;;14.26;42.42;97471.97;5116063;28;20401;-31
2022/01/16 00:37:52;;;;;;;4.78;3.50;;;;;;;14.29;42.40;97441.09;5116125;28;20023;-31
2022/01/16 00:40:18;;;;;;;4.93;3.70;;;;;;;14.25;42.39;97446.63;5115819;28;20019;-31
2022/01/16 00:42:43;;;;;;;7.53;4.13;;;;;;;14.31;42.25;97438.72;5114427;28;20432;-31
2022/01/16 00:45:09;;;;;;;6.40;4.03;;;;;;;14.36;41.96;97378.16;5116050;28;20031;-31
2022/01/16 00:47:34;;;;;;;6.15;4.28;;;;;;;14.34;41.97;97372.38;5116071;28;20027;-31
2022/01/16 00:50:00;;;;;;;6.80;3.83;;;;;;;14.33;42.27;97379.03;5115852;28;20032;-31
2022/01/16 00:52:25;;;;;;;5.88;3.70;;;;;;;14.32;42.34;97372.81;5115790;28;20035;-31
2022/01/16 00:54:51;;;;;;;7.22;4.35;;;;;;;14.31;42.52;97370.50;5115596;27;20088;-31
2022/01/16 00:57:16;;;;;;;6.32;3.63;;;;;;;14.29;42.15;97400.16;5115835;28;20020;-31
2022/01/16 00:59:42;;;;;;;5.18;3.53;;;;;;;14.34;42.40;97422.25;5115498;28;20031;-31
2022/01/16 01:02:07;;;;;;;6.03;3.40;;;;;;;14.25;42.27;97419.34;5115704;28;20023;-31
2022/01/16 01:04:34;;;;;;;6.68;3.65;;;;;;;14.28;42.31;97451.25;5115578;28;20031;-31
2022/01/16 01:06:59;;;;;;;6.53;4.13;;;;;;;14.22;42.33;97449.44;5115443;28;20370;-31
2022/01/16 01:09:25;;;;;;;4.93;3.30;;;;;;;14.32;42.15;97467.53;5115328;28;20038;-31
2022/01/16 01:11:50;;;;;;;5.15;3.28;;;;;;;14.26;42.42;97466.50;5115401;28;20019;-31
2022/01/16 01:14:25;;;;;;;5.75;3.33;;;;;;;14.21;42.45;97478.72;5115454;28;20541;-31
2022/01/16 01:16:53;;;;;;;5.43;3.38;;;;;;;14.20;42.53;97463.53;5113642;28;20016;-31
2022/01/16 01:19:27;;;;;;;5.07;3.10;;;;;;;14.18;42.36;97440.59;5115097;28;20433;-31
2022/01/16 01:21:53;;;;;;;4.93;2.92;;;;;;;14.19;42.19;97439.41;5115045;28;20057;-31
2022/01/16 01:24:18;;;;;;;5.55;2.70;;;;;;;14.18;42.45;97468.63;5115136;28;20031;-31
2022/01/16 01:26:53;;;;;;;4.80;2.80;;;;;;;14.24;42.25;97477.06;5115066;28;20022;-31
2022/01/16 01:29:20;;;;;;;5.45;3.30;;;;;;;14.18;42.16;97473.31;5113739;28;20027;-32
2022/01/16 01:31:47;;;;;;;6.28;3.30;;;;;;;14.22;42.23;97484.91;5115032;28;20423;-31
2022/01/16 01:34:13;;;;;;;5.63;3.20;;;;;;;14.24;41.85;97504.34;5114914;28;20024;-31
2022/01/16 01:36:38;;;;;;;4.93;2.88;;;;;;;14.26;41.83;97499.25;5114741;28;20552;-31
2022/01/16 01:39:03;;;;;;;4.65;2.78;;;;;;;14.20;42.06;97492.78;5114826;28;20394;-31
2022/01/16 01:41:29;;;;;;;5.30;3.28;;;;;;;14.17;42.40;97509.97;5114636;28;20102;-34
2022/01/16 01:52:07;;;;;;;6.95;3.38;;;;;;;14.14;42.28;97522.50;5114685;28;20022;-32
2022/01/16 01:54:33;;;;;;;4.85;2.97;;;;;;;14.14;42.41;97519.78;5114377;28;20023;-31
2022/01/16 01:57:00;;;;;;;5.15;2.95;;;;;;;14.19;41.96;97523.97;5114543;28;20119;-31
2022/01/16 01:59:26;;;;;;;4.50;3.03;;;;;;;14.20;42.06;97520.81;5114486;28;20397;-31
2022/01/16 02:01:52;;;;;;;5.82;3.08;;;;;;;14.22;41.86;97517.66;5114398;28;20016;-31
2022/01/16 02:04:19;;;;;;;5.13;2.70;;;;;;;14.19;41.63;97515.78;5114385;28;20408;-31
2022/01/16 02:06:45;;;;;;;4.85;2.70;;;;;;;14.13;41.80;97501.09;5114569;28;20028;-31
2022/01/16 02:09:10;;;;;;;5.72;3.10;;;;;;;14.14;41.92;97502.63;5112978;28;20023;-31
2022/01/16 02:11:36;;;;;;;5.05;3.15;;;;;;;14.16;42.13;97511.94;5114409;28;20377;-31
2022/01/16 02:14:22;;;;;;;4.72;2.70;;;;;;;14.19;41.85;97505.66;5114251;28;20064;-33
2022/01/16 02:28:15;;;;;;;6.47;2.95;;;;;;;14.15;41.96;97472.22;5113605;28;20496;-31
2022/01/16 02:31:16;;;;;;;3.40;2.45;;;;;;;14.16;42.19;97464.78;5113905;28;20054;-31
2022/01/16 02:36:33;;;;;;;4.28;2.42;;;;;;;14.01;42.36;97465.09;5089668;28;20112;-32
2022/01/16 02:39:01;;;;;;;4.85;2.63;;;;;;;14.17;42.03;97469.81;5114062;28;20038;-31
2022/01/16 02:41:27;;;;;;;4.30;2.50;;;;;;;14.12;42.14;97462.13;5113856;28;20047;-31
2022/01/16 02:43:54;;;;;;;3.78;2.60;;;;;;;14.19;42.11;97458.50;5113758;28;20397;-31
2022/01/16 02:48:54;;;;;;;3.55;2.30;;;;;;;14.07;42.32;97456.44;5113668;28;20026;-32
2022/01/16 02:51:22;;;;;;;3.30;2.25;;;;;;;14.13;42.39;97443.81;5114011;28;20055;-31
2022/01/16 02:53:49;;;;;;;3.60;2.25;;;;;;;14.12;42.22;97459.41;5113861;28;20477;-31
2022/01/16 02:56:16;;;;;;;2.90;1.83;;;;;;;14.10;42.29;97433.75;5113501;28;20056;-31
2022/01/16 02:58:43;;;;;;;2.80;2.30;;;;;;;14.12;42.19;97415.75;5113551;28;20034;-31
2022/01/16 03:01:10;;;;;;;4.35;2.45;;;;;;;14.08;42.06;97408.88;5113607;28;20071;-31
2022/01/16 03:03:35;;;;;;;4.43;2.30;;;;;;;14.03;42.41;97426.50;5113814;28;20030;-31
2022/01/16 03:06:01;;;;;;;3.70;2.40;;;;;;;14.11;42.41;97432.56;5113453;28;20024;-31
2022/01/16 03:08:26;;;;;;;3.28;2.20;;;;;;;14.11;42.11;97435.28;5113460;28;20028;-31
2022/01/16 03:11:09;;;;;;;5.13;2.30;;;;;;;14.12;42.08;97425.91;5113473;28;20111;-31
2022/01/16 03:13:34;;;;;;;2.92;1.77;;;;;;;14.14;42.14;97439.91;5113544;28;20035;-31
2022/01/16 03:16:00;;;;;;;4.47;2.60;;;;;;;14.08;42.17;97447.06;5113766;28;20028;-31
2022/01/16 03:23:36;;;;;;;4.10;2.25;;;;;;;14.08;42.49;97436.16;5113886;28;20057;-32
2022/01/16 03:26:01;;;;;;;3.80;2.75;;;;;;;14.06;42.46;97439.31;5113549;28;20032;-31
2022/01/16 03:28:27;;;;;;;3.33;2.42;;;;;;;14.03;42.31;97438.19;5113441;28;20031;-31
2022/01/16 03:30:54;;;;;;;4.55;2.20;;;;;;;14.08;42.21;97442.38;5113327;28;20023;-32
2022/01/16 03:33:20;;;;;;;4.00;3.03;;;;;;;14.07;42.37;97453.72;5113268;28;20053;-31
2022/01/16 03:35:49;;;;;;;3.47;2.28;;;;;;;13.98;42.56;97446.84;5113193;28;20074;-31
2022/01/16 03:38:15;;;;;;;3.72;2.67;;;;;;;14.07;42.19;97445.53;5113569;28;20043;-31
2022/01/16 03:40:40;;;;;;;4.15;2.22;;;;;;;14.08;42.47;97452.50;5117404;28;20053;-31
2022/01/16 03:43:13;;;;;;;4.45;2.80;;;;;;;14.03;42.44;97453.78;5117453;28;20030;-31
2022/01/16 03:45:44;;;;;;;3.70;2.28;;;;;;;14.03;42.24;97464.69;5117165;28;20392;-31
2022/01/16 03:48:10;;;;;;;5.40;2.45;;;;;;;13.99;42.35;97462.03;5117120;28;20369;-32
2022/01/16 03:50:36;;;;;;;5.28;2.83;;;;;;;14.04;42.29;97463.50;5117029;28;20048;-31
2022/01/16 03:53:01;;;;;;;3.80;2.55;;;;;;;14.03;42.15;97462.72;5116899;28;20020;-31
2022/01/16 03:55:26;;;;;;;3.33;2.50;;;;;;;13.98;42.15;97457.00;5116829;28;20054;-31
2022/01/16 03:57:52;;;;;;;3.42;2.50;;;;;;;14.01;42.14;97442.53;5116752;28;20041;-33
2022/01/16 04:00:17;;;;;;;5.32;3.20;;;;;;;13.97;42.30;97448.03;5116883;28;20107;-31
2022/01/16 04:02:43;;;;;;;3.85;2.50;;;;;;;13.99;42.23;97442.16;5116518;28;20034;-31
2022/01/16 04:05:08;;;;;;;3.72;2.42;;;;;;;13.96;41.85;97440.31;5116800;28;20430;-31
2022/01/16 04:07:35;;;;;;;4.70;2.33;;;;;;;13.99;42.01;97442.94;5116654;28;20384;-31
2022/01/16 04:10:07;;;;;;;4.32;2.40;;;;;;;13.97;41.90;97448.03;5116832;28;20027;-31
2022/01/16 04:12:35;;;;;;;4.32;2.75;;;;;;;13.96;41.86;97440.31;5116666;28;20053;-31
2022/01/16 04:17:26;;;;;;;3.80;2.42;;;;;;;13.94;42.00;97421.66;5116928;28;20118;-31
2022/01/16 04:19:52;;;;;;;3.63;2.38;;;;;;;13.94;41.94;97420.88;5115165;28;20030;-31
2022/01/16 04:22:19;;;;;;;4.13;2.55;;;;;;;13.98;41.45;97421.53;5116491;28;20525;-31
2022/01/16 04:24:44;;;;;;;4.70;2.55;;;;;;;13.96;41.58;97423.94;5116690;28;20385;-31
2022/01/16 04:27:11;;;;;;;3.45;2.33;;;;;;;13.99;41.57;97421.13;5116309;28;20016;-32
2022/01/16 04:29:42;;;;;;;4.95;2.75;;;;;;;13.97;41.63;97420.03;5116213;28;20035;-31
2022/01/16 04:32:09;;;;;;;4.00;2.70;;;;;;;13.86;42.09;97409.34;5116413;28;20019;-31
2022/01/16 04:34:34;;;;;;;3.60;2.30;;;;;;;13.92;41.66;97413.13;5116332;28;20035;-31
2022/01/16 04:37:00;;;;;;;5.32;2.28;;;;;;;13.89;42.16;97422.13;5116375;28;20024;-31
2022/01/16 04:39:32;;;;;;;5.28;2.33;;;;;;;13.99;41.57;97423.84;5116207;28;20059;-31
2022/01/16 04:44:42;;;;;;;3.42;2.42;;;;;;;13.92;41.86;97429.47;5115978;28;20031;-31
2022/01/16 04:47:08;;;;;;;3.22;2.67;;;;;;;13.93;41.48;97428.28;5115957;28;20425;-31
2022/01/16 04:49:33;;;;;;;3.65;2.50;;;;;;;13.99;41.39;97437.47;5115593;28;20031;-31
2022/01/16 04:51:59;;;;;;;4.97;2.67;;;;;;;13.90;41.71;97428.34;5115066;28;20110;-31
2022/01/16 04:54:25;;;;;;;3.90;2.22;;;;;;;13.92;41.32;97445.84;5115467;27;20055;-31
2022/01/16 04:56:51;;;;;;;5.43;3.25;;;;;;;13.85;41.51;97429.63;5115685;28;20028;-31
2022/01/16 04:59:17;;;;;;;4.80;2.50;;;;;;;13.85;41.58;97445.22;5115523;28;20476;-32
2022/01/16 05:01:43;;;;;;;4.85;2.58;;;;;;;13.89;41.58;97440.44;5115566;28;20032;-31
2022/01/16 05:04:09;;;;;;;3.03;2.25;;;;;;;13.87;41.75;97445.56;5115610;28;20487;-31
2022/01/16 05:06:34;;;;;;;7.22;3.08;;;;;;;13.90;41.43;97442.00;5115515;28;20587;-31
2022/01/16 05:08:59;;;;;;;4.28;2.35;;;;;;;13.84;41.33;97444.47;5115486;28;20027;-32
2022/01/16 05:11:26;;;;;;;5.68;2.90;;;;;;;13.88;41.18;97447.88;5115533;28;20020;-31
2022/01/16 05:16:37;;;;;;;4.43;2.60;;;;;;;13.87;41.21;97461.91;5115243;28;20028;-31
2022/01/16 05:19:12;;;;;;;5.43;2.53;;;;;;;13.86;41.46;97463.09;5115317;27;20027;-31
2022/01/16 05:21:39;;;;;;;4.22;2.70;;;;;;;13.85;41.04;97459.63;5115209;28;20094;-31
2022/01/16 05:24:09;;;;;;;4.18;2.75;;;;;;;13.84;41.11;97462.78;5115416;28;20024;-31
2022/01/16 05:26:40;;;;;;;2.88;2.45;;;;;;;13.88;41.14;97466.19;5115187;28;20461;-31
2022/01/16 05:29:05;;;;;;;3.30;2.40;;;;;;;13.84;41.29;97462.78;5115419;28;20579;-31
2022/01/16 05:31:31;;;;;;;3.80;2.58;;;;;;;13.81;41.18;97458.94;5114822;28;20094;-31
2022/01/16 05:33:56;;;;;;;3.95;2.53;;;;;;;13.80;41.11;97459.34;5115180;28;20023;-31
2022/01/16 05:36:22;;;;;;;4.03;2.90;;;;;;;13.81;41.09;97460.91;5114916;28;20033;-31
2022/01/16 05:38:48;;;;;;;5.18;2.75;;;;;;;13.77;41.08;97460.19;5114815;28;20020;-32
2022/01/16 05:41:14;;;;;;;4.28;2.80;;;;;;;13.80;41.21;97473.75;5114713;28;20123;-31
2022/01/16 05:43:39;;;;;;;4.53;2.88;;;;;;;13.80;40.85;97476.50;5114865;28;20504;-32
2022/01/16 05:46:06;;;;;;;6.53;3.38;;;;;;;13.76;41.04;97475.78;5114608;28;20114;-31
2022/01/16 05:48:31;;;;;;;6.32;2.90;;;;;;;13.77;40.93;97490.94;5115060;28;20419;-31
2022/01/16 05:50:57;;;;;;;4.28;2.85;;;;;;;13.78;41.04;97492.50;5114792;28;20027;-31
2022/01/16 05:53:23;;;;;;;6.63;3.20;;;;;;;13.73;41.10;97492.97;5114815;27;20100;-31
2022/01/16 05:55:48;;;;;;;5.20;3.95;;;;;;;13.79;40.98;97491.31;5114288;28;20131;-31
2022/01/16 05:58:14;;;;;;;5.50;3.30;;;;;;;13.73;40.84;97498.44;5114476;28;20051;-32
2022/01/16 06:00:40;;;;;;;3.95;2.72;;;;;;;13.76;40.67;97499.56;5114315;28;20027;-31
2022/01/16 06:03:06;;;;;;;6.07;2.97;;;;;;;13.76;40.99;97494.09;5114523;28;20024;-31
2022/01/16 06:05:32;;;;;;;5.75;2.88;;;;;;;13.71;41.17;97483.69;5114466;28;20467;-32
2022/01/16 06:08:07;;;;;;;5.18;2.90;;;;;;;13.68;41.05;97485.31;5114146;28;20027;-31
2022/01/16 06:10:32;;;;;;;4.88;2.83;;;;;;;13.73;41.14;97487.53;5114649;28;20023;-32
2022/01/16 06:12:58;;;;;;;5.70;3.13;;;;;;;13.70;41.03;97491.13;5114148;28;20041;-32
2022/01/16 06:15:23;;;;;;;5.57;3.33;;;;;;;13.67;41.03;97491.94;5114512;28;20030;-31
2022/01/16 06:17:49;;;;;;;4.72;2.58;;;;;;;13.68;40.85;97493.47;5114348;28;20053;-32
2022/01/16 06:20:15;;;;;;;4.30;2.80;;;;;;;13.71;40.78;97481.75;5114330;28;20035;-32
2022/01/16 06:22:41;;;;;;;5.05;2.75;;;;;;;13.72;41.15;97496.16;5114005;28;20072;-31
2022/01/16 06:25:07;;;;;;;5.13;3.05;;;;;;;13.65;41.18;97502.50;5114356;28;20032;-32
2022/01/16 06:27:33;;;;;;;5.13;2.92;;;;;;;13.68;40.95;97515.28;5114002;28;20476;-32
2022/01/16 06:29:59;;;;;;;6.43;3.40;;;;;;;13.69;40.91;97516.06;5113908;28;20035;-32
2022/01/16 06:32:24;;;;;;;7.38;3.35;;;;;;;13.64;40.96;97520.81;5114052;28;20055;-31
2022/01/16 06:34:50;;;;;;;5.78;3.78;;;;;;;13.71;40.79;97525.38;5097146;28;20035;-31
2022/01/16 06:37:15;;;;;;;8.38;4.88;;;;;;;13.68;41.01;97525.44;5091469;28;20028;-32
2022/01/16 06:39:41;;;;;;;7.85;5.22;;;;;;;13.68;40.87;97525.44;5090047;28;20035;-32
2022/01/16 06:42:06;;;;;;;9.80;6.25;;;;;;;13.69;40.74;97535.91;5091437;28;20024;-31
2022/01/16 06:44:31;;;;;;;9.63;6.75;;;;;;;13.66;40.83;97525.84;5091309;28;20027;-32
2022/01/16 06:46:57;;;;;;;9.60;6.38;;;;;;;13.63;41.14;97524.72;5090592;28;20085;-31
2022/01/16 06:49:22;;;;;;;10.50;6.43;;;;;;;13.66;40.92;97525.84;5091194;28;20028;-31
2022/01/16 06:51:48;;;;;;;9.63;6.28;;;;;;;13.65;40.70;97535.22;5089941;28;20035;-32
2022/01/16 06:54:13;;;;;;;9.15;6.45;;;;;;;13.64;41.05;97536.41;5091440;28;20027;-32
2022/01/16 06:56:39;;;;;;;9.73;6.03;;;;;;;13.63;40.98;97535.63;5091190;28;20059;-32
2022/01/16 06:59:05;;;;;;;9.88;6.30;;;;;;;13.63;40.98;97543.81;5091037;28;20027;-32
2022/01/16 07:01:32;;;;;;;9.45;5.88;;;;;;;13.68;40.86;97539.06;5090815;28;20054;-32
2022/01/16 07:03:57;;;;;;;9.85;6.35;;;;;;;13.62;40.88;97546.94;5091115;28;20016;-31
2022/01/16 07:06:23;;;;;;;9.82;5.97;;;;;;;13.65;40.90;97543.38;5090688;28;20031;-32
2022/01/16 07:08:49;;;;;;;9.00;5.40;;;;;;;13.62;41.01;97563.28;5091065;28;20032;-32
2022/01/16 07:11:15;;;;;;;9.40;6.38;;;;;;;13.61;40.75;97564.47;5090798;28;20047;-32
2022/01/16 07:13:41;;;;;;;8.85;6.20;;;;;;;13.64;40.49;97560.94;5092060;28;20457;-32
2022/01/16 07:16:07;;;;;;;10.43;6.68;;;;;;;13.59;40.92;97564.94;5094683;28;20035;-32
2022/01/16 07:18:32;;;;;;;12.70;7.88;;;;;;;13.62;40.75;97561.34;5094531;28;20474;-33
2022/01/16 07:20:58;;;;;;;11.75;7.90;;;;;;;13.58;41.23;97549.00;5095098;28;20099;-32
2022/01/16 07:23:23;;;;;;;10.98;6.82;;;;;;;13.56;41.26;97549.41;5094959;28;20388;-32
2022/01/16 07:25:49;;;;;;;13.55;8.10;;;;;;;13.64;41.04;97553.53;5094990;28;20028;-32
2022/01/16 07:28:15;;;;;;;10.57;6.57;;;;;;;13.64;41.04;97561.69;5095087;28;20043;-32
2022/01/16 07:30:41;;;;;;;10.00;6.65;;;;;;;13.64;41.16;97569.88;5095131;28;20062;-32
2022/01/16 07:33:08;;;;;;;10.55;6.63;;;;;;;13.61;41.04;97575.38;5094627;28;20024;-31
2022/01/16 07:35:35;;;;;;;12.00;6.57;;;;;;;13.61;40.93;97564.47;5094838;28;20051;-31
2022/01/16 07:38:01;;;;;;;11.02;6.72;;;;;;;13.58;41.37;97568.06;5094681;28;20032;-32
2022/01/16 07:40:27;;;;;;;9.73;6.18;;;;;;;13.57;41.33;97571.97;5094707;28;20469;-31
2022/01/16 07:42:54;;;;;;;7.80;5.22;;;;;;;13.58;41.29;97578.97;5094674;28;20032;-33
2022/01/16 07:45:20;;;;;;;9.13;5.28;;;;;;;13.60;41.44;97577.34;5094639;28;20063;-31
2022/01/16 07:47:45;;;;;;;8.18;5.53;;;;;;;13.64;41.33;97569.09;5094569;28;20067;-32
2022/01/16 07:50:13;;;;;;;9.80;5.97;;;;;;;13.63;41.18;97571.06;5094840;28;20066;-32
2022/01/16 07:52:38;;;;;;;8.60;5.35;;;;;;;13.61;41.23;97564.47;5092403;28;20047;-32
2022/01/16 07:55:04;;;;;;;8.95;5.40;;;;;;;13.59;41.67;97569.59;5094304;28;20449;-32
2022/01/16 07:57:31;;;;;;;8.10;5.18;;;;;;;13.57;41.62;97570.03;5092653;28;20552;-32
2022/01/16 07:59:56;;;;;;;8.82;5.30;;;;;;;13.62;41.38;97560.56;5094186;28;20027;-32
2022/01/16 08:02:22;;;;;;;9.57;5.82;;;;;;;13.64;41.44;97564.41;5094188;28;20031;-33
2022/01/16 08:04:47;;;;;;;9.13;5.18;;;;;;;13.62;41.31;97566.78;5094383;28;20028;-32
2022/01/16 08:07:13;;;;;;;9.80;5.53;;;;;;;13.60;41.40;97568.41;5094182;28;20030;-32
2022/01/16 08:09:38;;;;;;;9.52;5.60;;;;;;;13.57;41.56;97566.53;5094136;28;20406;-32
2022/01/16 08:12:05;;;;;;;9.52;6.18;;;;;;;13.57;41.91;97571.97;5092829;28;20036;-31
2022/01/16 08:14:30;;;;;;;9.05;5.53;;;;;;;13.58;41.75;97573.50;5094201;28;20020;-32
2022/01/16 08:16:56;;;;;;;8.90;5.60;;;;;;;13.54;41.98;97572.81;5094078;28;20028;-32
2022/01/16 08:19:25;;;;;;;8.40;5.03;;;;;;;13.49;42.22;97565.09;5093616;28;20055;-33
2022/01/16 08:21:56;;;;;;;10.00;5.78;;;;;;;13.55;41.68;97569.66;5093927;28;20106;-32
2022/01/16 08:24:24;;;;;;;10.85;6.80;;;;;;;13.50;42.34;97580.25;5096211;28;20036;-32
2022/01/16 08:26:49;;;;;;;10.32;5.97;;;;;;;13.52;42.16;97575.19;5092253;28;20448;-31
2022/01/16 08:29:15;;;;;;;11.73;6.35;;;;;;;13.53;41.89;97577.47;5100762;28;20094;-33
2022/01/16 08:31:41;;;;;;;10.85;6.30;;;;;;;13.56;41.74;97581.34;5105971;28;20020;-32
2022/01/16 08:34:07;;;;;;;9.57;5.70;;;;;;;13.55;41.96;97596.16;5113831;28;20055;-31
2022/01/16 08:36:32;;;;;;;9.68;5.90;;;;;;;13.58;41.88;97589.88;5114219;28;20058;-32
2022/01/16 08:38:58;;;;;;;9.38;5.45;;;;;;;13.54;41.86;97586.44;5114165;28;20594;-32
2022/01/16 08:41:24;;;;;;;8.60;4.90;;;;;;;13.49;41.79;97586.91;5109627;28;20484;-31
2022/01/16 08:43:50;;;;;;;8.15;5.03;;;;;;;13.42;42.07;97582.38;5096638;28;20063;-32
2022/01/16 08:46:16;;;;;;;9.23;6.95;;;;;;;12.46;45.34;97583.88;5113700;28;20070;-31
2022/01/16 08:48:41;;;;;;;11.75;6.95;;;;;;;12.82;44.06;97591.53;5114087;28;20077;-32
2022/01/16 08:51:07;;;;;;;8.60;7.03;;;;;;;12.98;43.75;97605.28;5113846;28;20016;-31
2022/01/16 08:53:33;;;;;;;7.47;6.32;;;;;;;13.15;43.34;97596.06;5101387;28;20055;-31
2022/01/16 08:55:59;;;;;;;9.75;6.60;;;;;;;13.25;43.20;97602.50;5102949;28;20051;-31
2022/01/16 08:58:26;;;;;;;9.23;6.20;;;;;;;13.38;42.71;97602.69;5112549;28;20032;-31
2022/01/16 09:00:51;;;;;;;8.02;6.18;;;;;;;13.38;42.81;97598.00;5080341;28;20027;-31
2022/01/16 09:03:19;;;;;;;8.23;6.90;;;;;;;13.38;43.13;97603.44;5095026;28;20433;-31
2022/01/16 09:05:45;;;;;;;7.50;5.97;;;;;;;13.41;42.71;97604.56;5094959;28;20032;-31
2022/01/16 09:08:11;;;;;;;9.35;6.20;;;;;;;13.39;42.62;97606.94;5095730;28;20437;-31
2022/01/16 09:10:37;;;;;;;10.25;6.30;;;;;;;13.42;42.91;97608.84;5094866;28;20452;-31
2022/01/16 09:13:03;;;;;;;9.05;6.45;;;;;;;13.44;42.64;97611.94;5099474;28;20019;-31
2022/01/16 09:15:29;;;;;;;9.23;6.43;;;;;;;13.45;43.04;97614.25;5105289;28;20157;-31
2022/01/16 09:17:54;;;;;;;7.72;5.70;;;;;;;13.37;43.04;97617.47;5095179;28;20102;-32
2022/01/16 09:20:20;;;;;;;8.20;6.15;;;;;;;13.41;42.83;97623.66;5085430;28;20035;-31
2022/01/16 09:22:48;;;;;;;8.27;5.80;;;;;;;13.40;43.42;97620.16;5074575;28;20175;-31
2022/01/16 09:25:14;;;;;;;8.70;6.15;;;;;;;13.36;43.31;97624.13;5078414;28;20474;-31
2022/01/16 09:27:40;;;;;;;9.15;6.40;;;;;;;13.38;43.11;97624.47;5076915;28;20028;-31
2022/01/16 09:30:07;;;;;;;10.00;6.57;;;;;;;13.42;43.44;97617.03;5094137;28;20485;-31
2022/01/16 09:32:33;;;;;;;10.85;7.03;;;;;;;13.45;43.12;97622.41;5093319;28;20374;-31
2022/01/16 09:35:01;;;;;;;10.50;7.32;;;;;;;13.42;43.38;97619.75;5094363;28;20038;-31
2022/01/16 09:37:26;;;;;;;11.48;7.40;;;;;;;13.39;43.59;97623.28;5094269;28;20512;-31
2022/01/16 09:39:54;;;;;;;10.57;7.38;;;;;;;13.39;43.62;97620.56;5093187;28;20023;-32
2022/01/16 09:42:21;;;;;;;9.52;7.25;;;;;;;13.36;43.95;97632.28;5094301;28;20038;-31
2022/01/16 09:44:47;;;;;;;9.70;6.88;;;;;;;13.44;43.83;97625.56;5094254;28;20032;-31
2022/01/16 09:47:12;;;;;;;11.23;6.97;;;;;;;13.46;43.63;97628.63;5094560;28;20077;-31
2022/01/16 09:49:39;;;;;;;10.82;6.93;;;;;;;13.41;43.63;97635.31;5094227;28;20038;-31
2022/01/16 09:52:05;;;;;;;10.02;6.32;;;;;;;13.43;43.72;97627.50;5094592;28;20027;-31
2022/01/16 09:54:31;;;;;;;9.68;6.47;;;;;;;13.36;44.30;97635.00;5094080;28;20028;-31
2022/01/16 09:56:56;;;;;;;9.05;6.18;;;;;;;13.36;44.15;97633.06;5094215;28;20028;-31
2022/01/16 09:59:22;;;;;;;8.93;5.95;;;;;;;13.42;44.33;97636.09;5094100;28;20449;-31
2022/01/16 10:01:47;;;;;;;7.97;5.93;;;;;;;13.39;44.17;97631.47;5094050;28;20036;-32
2022/01/16 10:04:38;;;;;;;9.18;5.72;;;;;;;13.42;43.94;97620.50;5094248;28;20031;-31
2022/01/16 10:07:09;;;;;;;9.52;5.65;;;;;;;13.41;44.26;97629.09;5094237;28;20024;-31
2022/01/16 10:09:37;;;;;;;8.38;5.95;;;;;;;13.36;44.65;97624.13;5093853;28;20047;-31
2022/01/16 10:12:05;;;;;;;8.98;5.80;;;;;;;13.44;44.36;97634.50;5094074;28;20044;-31
2022/01/16 10:14:44;;;;;;;8.90;5.35;;;;;;;13.47;44.14;97630.19;5093781;28;20024;-31
2022/01/16 10:17:15;;;;;;;7.88;5.57;;;;;;;13.39;44.64;97632.25;5093880;28;20030;-31
2022/01/16 10:19:41;;;;;;;8.38;5.63;;;;;;;13.40;44.83;97631.06;5093506;28;20035;-31
2022/01/16 10:22:09;;;;;;;8.68;5.72;;;;;;;13.45;44.50;97635.28;5093689;28;20029;-31
2022/01/16 10:24:35;;;;;;;8.40;5.35;;;;;;;13.40;44.78;97633.00;5093625;28;20028;-31
2022/01/16 10:27:13;;;;;;;9.15;5.93;;;;;;;13.44;44.76;97637.22;5093583;28;20089;-31
2022/01/16 10:29:46;;;;;;;7.85;5.07;;;;;;;13.46;44.79;97644.97;5093557;28;20024;-31
2022/01/16 10:32:13;;;;;;;8.38;6.13;;;;;;;13.45;45.19;97638.75;5093619;28;20458;-31
2022/01/16 10:34:40;;;;;;;7.65;5.28;;;;;;;13.45;45.36;97646.16;5093547;28;20032;-31
2022/01/16 10:37:23;;;;;;;6.70;5.00;;;;;;;13.45;45.14;97641.50;5093664;28;20462;-31
2022/01/16 10:39:57;;;;;;;7.97;5.23;;;;;;;13.44;45.14;97639.19;5093459;28;20429;-32
2022/01/16 10:42:23;;;;;;;9.25;5.93;;;;;;;13.50;44.99;97645.69;5093435;28;20102;-31
2022/01/16 10:45:01;;;;;;;8.82;5.50;;;;;;;13.41;45.70;97646.22;5093213;28;20035;-31
2022/01/16 10:47:35;;;;;;;7.78;5.55;;;;;;;13.45;45.47;97643.44;5093314;28;20030;-31
2022/01/16 10:50:06;;;;;;;12.60;8.00;;;;;;;12.71;51.98;97645.34;5091410;28;20391;-31
2022/01/16 10:52:32;;;;;;;17.10;7.88;;;;;;;13.08;50.94;97633.50;5092919;28;20039;-31
2022/01/16 10:55:09;;;;;;;13.48;7.80;;;;;;;13.27;50.80;97630.88;5092839;28;20079;-31
2022/01/16 10:57:35;;;;;;;12.48;7.65;;;;;;;13.44;49.84;97639.19;5093199;28;20462;-31
2022/01/16 11:00:14;;;;;;;12.75;8.68;;;;;;;13.64;49.39;97638.03;5093056;28;20031;-31
2022/01/16 11:02:42;;;;;;;12.20;7.18;;;;;;;13.69;48.93;97633.28;5087157;28;20122;-31
2022/01/16 11:05:17;;;;;;;10.85;7.47;;;;;;;13.73;49.27;97637.47;5091771;28;20085;-31
2022/01/16 11:07:43;;;;;;;11.65;7.53;;;;;;;13.76;48.81;97631.19;5091773;28;20071;-31
2022/01/16 11:10:19;;;;;;;11.52;7.65;;;;;;;13.75;48.90;97632.38;5093041;28;20028;-31
2022/01/16 11:12:45;;;;;;;10.60;7.05;;;;;;;13.81;48.60;97633.44;5093363;28;20028;-31
2022/01/16 11:15:11;;;;;;;12.15;7.18;;;;;;;13.80;48.96;97629.19;5090950;28;20032;-31
2022/01/16 11:17:38;;;;;;;11.75;7.25;;;;;;;13.84;48.57;97621.72;5092701;28;20378;-31
2022/01/16 11:20:05;;;;;;;9.75;6.65;;;;;;;13.85;48.67;97625.19;5074750;28;20503;-31
2022/01/16 11:22:45;;;;;;;11.48;7.35;;;;;;;13.90;48.37;97617.28;5072794;28;20024;-31
2022/01/16 11:25:23;;;;;;;11.75;7.18;;;;;;;13.87;48.56;97620.06;5072835;28;20017;-31
2022/01/16 11:27:49;;;;;;;10.60;6.35;;;;;;;13.85;48.19;97619.72;5073008;28;20099;-31
2022/01/16 11:30:14;;;;;;;10.48;6.97;;;;;;;13.92;48.55;97623.09;5072514;28;20025;-31
2022/01/16 11:32:40;;;;;;;10.70;6.68;;;;;;;13.96;48.56;97621.09;5072689;28;20043;-31
2022/01/16 11:35:07;;;;;;;9.55;6.60;;;;;;;13.93;48.74;97612.97;5072666;28;20033;-31
2022/01/16 11:37:32;;;;;;;8.88;6.00;;;;;;;14.00;48.25;97613.56;5072762;28;20032;-33
2022/01/16 11:40:51;;;;;;;11.35;7.07;;;;;;;13.93;48.58;97610.22;5071617;28;20040;-31
2022/01/16 11:43:30;;;;;;;10.30;6.75;;;;;;;13.96;48.62;97617.59;5070659;28;20382;-31
2022/01/16 11:46:18;;;;;;;11.73;6.13;;;;;;;13.99;48.49;97617.50;5070777;28;20032;-31
2022/01/16 11:48:47;;;;;;;10.07;6.80;;;;;;;14.03;48.64;97617.44;5070356;28;20107;-31
2022/01/16 11:51:31;;;;;;;10.80;7.13;;;;;;;14.03;48.53;97615.47;5070553;28;20030;-31
2022/01/16 11:54:06;;;;;;;11.48;6.95;;;;;;;14.06;48.51;97611.13;5070547;28;20673;-31
2022/01/16 11:56:37;;;;;;;11.45;7.28;;;;;;;13.99;48.58;97608.53;5070051;28;20534;-31
2022/01/16 11:59:14;;;;;;;13.65;7.88;;;;;;;14.04;48.41;97616.25;5070567;28;20157;-33
2022/01/16 12:01:59;;;;;;;12.13;7.68;;;;;;;14.02;48.55;97604.97;5074094;28;20020;-31
2022/01/16 12:04:31;;;;;;;11.38;7.30;;;;;;;14.08;48.28;97608.00;5075808;28;20515;-31
2022/01/16 12:06:56;;;;;;;12.23;7.43;;;;;;;14.03;48.42;97603.78;5075805;28;20112;-31
2022/01/16 12:09:34;;;;;;;12.38;7.70;;;;;;;14.04;48.27;97605.34;5075498;28;20067;-31
2022/01/16 12:11:59;;;;;;;10.93;7.65;;;;;;;14.06;48.40;97602.19;5075731;28;20371;-31
2022/01/16 12:14:51;;;;;;;11.38;7.15;;;;;;;14.12;48.25;97601.25;5075032;28;20036;-31